createdAt,value
2019-02-06T00:00:13.502Z,9.33
2019-02-06T00:04:31.668Z,13.20
2019-02-06T00:13:18.960Z,10.60
2019-02-06T00:17:26.994Z,13.47
2019-02-06T00:21:33.597Z,11.03
2019-02-06T00:25:40.371Z,14.30
2019-02-06T00:29:47.050Z,10.60
2019-02-06T00:33:54.444Z,12.63
2019-02-06T00:38:01.252Z,9.43
2019-02-06T00:42:09.181Z,10.37
2019-02-06T00:46:16.051Z,12.93
2019-02-06T00:50:22.757Z,14.23
2019-02-06T00:54:29.377Z,9.83
2019-02-06T00:58:36.197Z,11.35
2019-02-06T01:02:57.033Z,10.87
2019-02-06T01:07:08.016Z,12.37
2019-02-06T01:11:16.333Z,11.67
2019-02-06T01:15:23.377Z,10.60
2019-02-06T01:19:30.501Z,13.67
2019-02-06T01:23:37.570Z,8.83
2019-02-06T01:27:45.125Z,11.53
2019-02-06T01:31:53.346Z,13.78
2019-02-06T01:36:00.370Z,9.60
2019-02-06T01:40:07.569Z,14.10
2019-02-06T01:44:14.868Z,10.00
2019-02-06T01:48:22.307Z,19.40
2019-02-06T01:52:29.201Z,16.87
2019-02-06T01:56:35.437Z,12.10
2019-02-06T02:00:42.454Z,12.80
2019-02-06T02:04:49.366Z,10.83
2019-02-06T02:09:02.217Z,12.30
2019-02-06T02:13:08.848Z,14.90
2019-02-06T02:17:16.065Z,15.70
2019-02-06T02:21:22.276Z,19.50
2019-02-06T02:25:29.124Z,10.47
2019-02-06T02:29:35.870Z,14.78
2019-02-06T02:33:43.730Z,13.38
2019-02-06T02:37:51.975Z,13.53
2019-02-06T02:41:59.442Z,12.65
2019-02-06T02:46:06.702Z,18.00
2019-02-06T02:50:13.766Z,16.67
2019-02-06T02:54:20.109Z,15.30
2019-02-06T02:58:27.225Z,16.05
2019-02-06T03:02:40.539Z,15.00
2019-02-06T03:06:47.625Z,16.95
2019-02-06T03:10:54.431Z,15.83
2019-02-06T03:15:00.835Z,12.87
2019-02-06T03:19:07.685Z,13.00
2019-02-06T03:23:13.995Z,12.77
2019-02-06T03:27:21.219Z,11.33
2019-02-06T03:31:28.164Z,14.90
2019-02-06T03:35:38.748Z,14.17
2019-02-06T03:39:45.444Z,10.20
2019-02-06T03:43:52.261Z,13.10
2019-02-06T03:47:58.820Z,10.87
2019-02-06T03:52:05.820Z,13.22
2019-02-06T03:56:13.148Z,12.27
2019-02-06T04:00:21.455Z,12.80
2019-02-06T04:04:31.740Z,13.80
2019-02-06T04:08:38.505Z,13.18
2019-02-06T04:12:45.487Z,11.73
2019-02-06T04:16:52.823Z,18.80
2019-02-06T04:21:00.998Z,14.70
2019-02-06T04:25:23.998Z,12.13
2019-02-06T04:29:31.178Z,11.38
2019-02-06T04:33:39.543Z,12.83
2019-02-06T04:37:47.448Z,11.90
2019-02-06T04:41:54.724Z,15.53
2019-02-06T04:46:01.856Z,16.67
2019-02-06T04:50:08.767Z,9.50
2019-02-06T04:54:15.226Z,13.47
2019-02-06T04:58:21.814Z,12.90
2019-02-06T05:02:28.185Z,10.93
2019-02-06T05:06:35.932Z,11.80
2019-02-06T05:10:42.877Z,11.67
2019-02-06T05:14:49.257Z,10.00
2019-02-06T05:18:56.110Z,13.23
2019-02-06T05:23:02.741Z,13.70
2019-02-06T05:27:09.623Z,9.37
2019-02-06T05:31:16.801Z,12.77
2019-02-06T05:35:23.863Z,16.50
2019-02-06T05:39:31.197Z,10.03
2019-02-06T05:43:38.117Z,11.73
2019-02-06T05:47:45.473Z,8.80
2019-02-06T05:51:52.266Z,10.77
2019-02-06T05:55:58.880Z,8.57
2019-02-06T06:00:05.753Z,9.87
2019-02-06T06:04:14.319Z,12.53
2019-02-06T06:08:21.769Z,17.50
2019-02-06T06:12:30.114Z,10.08
2019-02-06T06:16:38.023Z,10.60
2019-02-06T06:20:45.700Z,11.22
2019-02-06T06:24:52.317Z,8.40
2019-02-06T06:28:59.773Z,9.07
2019-02-06T06:33:07.009Z,13.00
2019-02-06T06:37:16.712Z,13.03
2019-02-06T06:41:23.862Z,10.73
2019-02-06T06:45:31.945Z,8.23
2019-02-06T06:49:39.788Z,7.70
2019-02-06T06:53:47.061Z,7.80
2019-02-06T06:58:02.784Z,9.10
2019-02-06T07:06:25.236Z,11.43
2019-02-06T07:10:32.050Z,14.78
2019-02-06T07:14:39.432Z,8.83
2019-02-06T07:18:47.564Z,8.13
2019-02-06T07:22:54.139Z,9.60
2019-02-06T07:27:02.462Z,8.40
2019-02-06T07:31:10.031Z,9.83
2019-02-06T07:35:17.251Z,7.15
2019-02-06T07:39:24.349Z,7.23
2019-02-06T07:43:30.872Z,7.00
2019-02-06T07:47:37.336Z,8.20
2019-02-06T07:51:44.924Z,7.95
2019-02-06T07:55:56.005Z,7.77
2019-02-06T08:00:03.271Z,10.30
2019-02-06T08:04:10.518Z,9.30
2019-02-06T08:08:19.031Z,8.00
2019-02-06T08:12:25.407Z,7.87
2019-02-06T08:16:32.233Z,10.90
2019-02-06T08:20:38.768Z,7.60
2019-02-06T08:24:45.936Z,10.37
2019-02-06T08:28:53.104Z,10.60
2019-02-06T08:33:01.105Z,7.45
2019-02-06T08:37:08.207Z,11.40
2019-02-06T08:41:14.808Z,9.33
2019-02-06T08:45:21.456Z,6.70
2019-02-06T08:49:27.923Z,9.00
2019-02-06T08:53:34.637Z,8.17
2019-02-06T08:57:41.196Z,7.13
2019-02-06T09:01:48.054Z,7.97
2019-02-06T09:05:56.440Z,6.60
2019-02-06T09:10:03.598Z,7.20
2019-02-06T09:14:10.363Z,10.10
2019-02-06T09:18:17.147Z,9.90
2019-02-06T09:22:23.458Z,6.57
2019-02-06T09:26:33.969Z,11.37
2019-02-06T09:30:37.617Z,9.77
2019-02-06T09:34:44.338Z,10.73
2019-02-06T09:38:51.171Z,6.55
2019-02-06T09:42:57.992Z,9.57
2019-02-06T09:47:05.208Z,6.30
2019-02-06T09:51:11.722Z,8.80
2019-02-06T09:55:18.089Z,7.30
2019-02-06T09:59:25.017Z,9.53
2019-02-06T10:03:31.751Z,7.83
2019-02-06T10:07:38.410Z,5.53
2019-02-06T10:11:44.512Z,6.30
2019-02-06T10:15:50.890Z,9.07
2019-02-06T10:19:59.794Z,7.30
2019-02-06T10:24:06.134Z,7.67
2019-02-06T10:28:12.666Z,12.00
2019-02-06T10:32:19.428Z,8.40
2019-02-06T10:36:25.815Z,7.53
2019-02-06T10:40:32.529Z,7.30
2019-02-06T10:44:39.671Z,8.07
2019-02-06T10:48:47.698Z,10.78
2019-02-06T10:52:54.714Z,6.83
2019-02-06T10:57:01.489Z,7.40
2019-02-06T11:01:08.416Z,7.12
2019-02-06T11:05:14.371Z,9.45
2019-02-06T11:09:21.088Z,12.17
2019-02-06T11:13:28.497Z,8.57
2019-02-06T11:17:35.787Z,6.42
2019-02-06T11:21:43.024Z,8.70
2019-02-06T11:25:49.864Z,11.37
2019-02-06T11:30:00.659Z,11.67
2019-02-06T11:34:09.123Z,9.07
2019-02-06T11:38:15.870Z,7.67
2019-02-06T11:42:22.564Z,11.63
2019-02-06T11:46:31.872Z,11.07
2019-02-06T11:50:41.647Z,12.37
2019-02-06T11:54:48.422Z,13.77
2019-02-06T11:58:55.800Z,10.63
2019-02-06T12:03:02.624Z,13.25
2019-02-06T12:07:11.272Z,10.30
2019-02-06T12:11:18.984Z,10.80
2019-02-06T12:15:33.370Z,13.87
2019-02-06T12:19:40.198Z,8.50
2019-02-06T12:23:49.478Z,8.70
2019-02-06T12:27:57.968Z,8.80
2019-02-06T12:32:05.175Z,9.33
2019-02-06T12:36:11.877Z,14.70
2019-02-06T12:40:21.714Z,11.10
2019-02-06T12:44:26.161Z,13.70
2019-02-06T12:48:33.776Z,10.67
2019-02-06T12:52:41.116Z,12.80
2019-02-06T12:56:48.020Z,16.52
2019-02-06T13:00:54.913Z,14.83
2019-02-06T13:05:01.388Z,12.33
2019-02-06T13:09:08.768Z,11.97
2019-02-06T13:13:15.955Z,15.20
2019-02-06T13:17:22.800Z,17.80
2019-02-06T13:21:29.674Z,12.93
2019-02-06T13:25:36.580Z,15.30
2019-02-06T13:29:43.308Z,14.77
2019-02-06T13:33:50.678Z,15.83
2019-02-06T13:37:58.043Z,16.70
2019-02-06T13:42:05.544Z,18.17
2019-02-06T13:46:13.187Z,18.77
2019-02-06T13:50:22.083Z,15.70
2019-02-06T13:54:27.131Z,18.42
2019-02-06T13:58:34.373Z,20.43
2019-02-06T14:02:40.803Z,16.90
2019-02-06T14:06:47.360Z,23.43
2019-02-06T14:11:00.326Z,19.17
2019-02-06T14:15:00.598Z,21.10
2019-02-06T14:19:06.989Z,17.12
2019-02-06T14:23:13.833Z,17.80
2019-02-06T14:27:20.895Z,19.70
2019-02-06T14:31:27.767Z,16.50
2019-02-06T14:35:34.078Z,18.70
2019-02-06T14:39:40.631Z,23.38
2019-02-06T14:43:47.535Z,20.17
2019-02-06T14:47:55.790Z,15.95
2019-02-06T14:52:06.732Z,17.13
2019-02-06T14:56:22.454Z,19.53
2019-02-06T15:00:37.923Z,23.02
2019-02-06T15:04:46.188Z,23.70
2019-02-06T15:08:54.092Z,18.17
2019-02-06T15:13:01.897Z,16.83
2019-02-06T15:17:08.853Z,22.63
2019-02-06T15:21:17.964Z,18.57
2019-02-06T15:25:25.895Z,15.63
2019-02-06T15:29:32.855Z,21.90
2019-02-06T15:37:52.019Z,27.97
2019-02-06T15:41:59.512Z,19.63
2019-02-06T15:46:06.907Z,21.87
2019-02-06T15:50:14.195Z,23.30
2019-02-06T15:54:21.662Z,27.70
2019-02-06T15:58:29.410Z,20.57
2019-02-06T16:02:38.378Z,18.73
2019-02-06T16:06:52.917Z,17.33
2019-02-06T16:11:02.315Z,19.87
2019-02-06T16:15:11.921Z,20.32
2019-02-06T16:19:19.815Z,20.97
2019-02-06T16:23:26.782Z,18.87
2019-02-06T16:27:33.859Z,15.33
2019-02-06T16:31:40.862Z,18.70
2019-02-06T16:35:48.187Z,16.10
2019-02-06T16:39:54.803Z,22.23
2019-02-06T16:44:01.154Z,20.40
2019-02-06T16:48:08.439Z,15.43
2019-02-06T16:52:15.094Z,12.60
2019-02-06T16:56:23.784Z,18.43
2019-02-06T17:00:30.975Z,14.80
2019-02-06T17:04:37.815Z,15.90
2019-02-06T17:08:45.326Z,15.83
2019-02-06T17:12:52.481Z,13.90
2019-02-06T17:16:59.432Z,13.43
2019-02-06T17:21:06.284Z,20.88
2019-02-06T17:25:14.296Z,15.90
2019-02-06T17:29:23.644Z,16.20
2019-02-06T17:33:34.589Z,13.72
2019-02-06T17:37:43.310Z,14.03
2019-02-06T17:41:52.565Z,18.80
2019-02-06T17:46:03.866Z,15.15
2019-02-06T17:50:13.314Z,14.63
2019-02-06T17:59:42.149Z,17.87
2019-02-06T18:03:56.398Z,13.87
2019-02-06T18:08:28.712Z,17.62
2019-02-06T18:13:04.255Z,17.10
2019-02-06T18:17:22.665Z,16.83
2019-02-06T18:21:31.817Z,18.13
2019-02-06T18:25:38.951Z,15.23
2019-02-06T18:29:46.665Z,11.73
2019-02-06T18:33:53.449Z,12.33
2019-02-06T18:38:00.361Z,9.90
2019-02-06T18:42:12.896Z,6.67
2019-02-06T18:46:26.497Z,7.60
2019-02-06T18:50:42.985Z,5.68
2019-02-06T18:55:02.279Z,5.72
2019-02-06T18:59:17.307Z,5.92
2019-02-06T19:03:33.650Z,5.20
2019-02-06T19:07:45.907Z,6.87
2019-02-06T19:11:57.317Z,5.73
2019-02-06T19:16:09.363Z,5.13
2019-02-06T19:20:21.523Z,3.83
2019-02-06T19:24:33.120Z,4.10
2019-02-06T19:28:45.227Z,5.73
2019-02-06T19:32:57.175Z,4.43
2019-02-06T19:37:08.625Z,4.53
2019-02-06T19:41:27.909Z,5.13
2019-02-06T19:45:51.917Z,5.70
2019-02-06T19:50:04.444Z,5.97
2019-02-06T19:54:18.486Z,4.55
2019-02-06T19:58:32.178Z,4.83
2019-02-06T20:02:44.750Z,3.83
2019-02-06T20:07:07.266Z,4.47
2019-02-06T20:11:31.909Z,4.67
2019-02-06T20:15:44.246Z,4.60
2019-02-06T20:19:55.739Z,5.03
2019-02-06T20:24:07.842Z,5.80
2019-02-06T20:28:19.027Z,4.03
2019-02-06T20:32:30.497Z,4.22
2019-02-06T20:36:42.081Z,3.67
2019-02-06T20:40:53.966Z,4.10
2019-02-06T20:45:05.647Z,2.83
2019-02-06T20:49:27.455Z,5.47
2019-02-06T20:53:39.440Z,3.72
2019-02-06T20:57:50.965Z,4.40
2019-02-06T21:02:03.157Z,4.47
2019-02-06T21:06:16.425Z,4.10
2019-02-06T21:10:29.525Z,3.80
2019-02-06T21:14:40.880Z,5.40
2019-02-06T21:18:52.074Z,9.00
2019-02-06T21:23:04.506Z,3.80
2019-02-06T21:27:15.957Z,3.20
2019-02-06T21:31:31.914Z,3.60
2019-02-06T21:35:43.718Z,4.10
2019-02-06T21:39:55.551Z,9.40
2019-02-06T21:44:07.656Z,12.17
2019-02-06T21:48:22.186Z,13.05
2019-02-06T21:52:32.471Z,13.43
2019-02-06T21:56:44.489Z,22.20
2019-02-06T22:00:56.588Z,17.37
2019-02-06T22:05:08.961Z,18.32
2019-02-06T22:09:21.214Z,16.77
2019-02-06T22:13:33.241Z,12.57
2019-02-06T22:17:44.983Z,15.72
2019-02-06T22:21:57.496Z,13.70
2019-02-06T22:26:09.241Z,13.23
2019-02-06T22:30:25.433Z,13.25
2019-02-06T22:34:37.748Z,13.60
2019-02-06T22:38:49.585Z,14.23
2019-02-06T22:43:01.742Z,16.43
2019-02-06T22:47:13.778Z,15.17
2019-02-06T22:51:25.540Z,16.57
2019-02-06T22:55:37.911Z,14.47
2019-02-06T22:59:51.090Z,13.38
2019-02-06T23:04:05.907Z,11.93
2019-02-06T23:08:18.411Z,13.83
2019-02-06T23:12:29.916Z,15.60
2019-02-06T23:16:41.597Z,11.65
2019-02-06T23:20:53.573Z,28.83
2019-02-06T23:25:05.726Z,35.67
2019-02-06T23:29:17.292Z,18.62
2019-02-06T23:33:28.313Z,24.17
2019-02-06T23:37:39.815Z,24.00
2019-02-06T23:41:51.819Z,18.33
2019-02-06T23:46:03.981Z,20.27
2019-02-06T23:50:15.503Z,18.30
2019-02-06T23:54:27.732Z,22.85
2019-02-06T23:58:40.353Z,14.20
